sensor_id;sensor_type;location;lat;lon;timestamp;P1;durP1;ratioP1;P2;durP2;ratioP2
21032;SDS011;10675;47.976;7.824;2023-02-16T00:01:54;6.70;;;4.50;;
21032;SDS011;10675;47.976;7.824;2023-02-16T00:04:21;7.33;;;4.23;;
21032;SDS011;10675;47.976;7.824;2023-02-16T00:06:48;8.20;;;4.50;;
21032;SDS011;10675;47.976;7.824;2023-02-16T00:09:14;8.40;;;5.23;;
21032;SDS011;10675;47.976;7.824;2023-02-16T00:11:40;10.03;;;5.20;;
21032;SDS011;10675;47.976;7.824;2023-02-16T00:14:25;10.30;;;5.20;;
21032;SDS011;10675;47.976;7.824;2023-02-16T00:16:52;11.27;;;5.10;;
21032;SDS011;10675;47.976;7.824;2023-02-16T00:19:20;9.77;;;4.73;;
21032;SDS011;10675;47.976;7.824;2023-02-16T00:21:55;7.90;;;4.40;;
21032;SDS011;10675;47.976;7.824;2023-02-16T00:24:23;10.50;;;4.83;;
21032;SDS011;10675;47.976;7.824;2023-02-16T00:26:51;9.70;;;4.67;;
21032;SDS011;10675;47.976;7.824;2023-02-16T00:29:24;8.50;;;5.57;;
21032;SDS011;10675;47.976;7.824;2023-02-16T00:32:02;11.77;;;5.63;;
21032;SDS011;10675;47.976;7.824;2023-02-16T00:36:56;8.17;;;5.37;;
21032;SDS011;10675;47.976;7.824;2023-02-16T00:39:23;10.00;;;5.13;;
21032;SDS011;10675;47.976;7.824;2023-02-16T00:41:50;11.93;;;5.77;;
21032;SDS011;10675;47.976;7.824;2023-02-16T00:44:40;13.10;;;6.63;;
21032;SDS011;10675;47.976;7.824;2023-02-16T00:47:21;17.60;;;5.93;;
21032;SDS011;10675;47.976;7.824;2023-02-16T00:49:59;7.67;;;5.13;;
21032;SDS011;10675;47.976;7.824;2023-02-16T00:54:53;9.63;;;5.13;;
21032;SDS011;10675;47.976;7.824;2023-02-16T00:57:19;8.17;;;4.53;;
21032;SDS011;10675;47.976;7.824;2023-02-16T00:59:46;9.80;;;5.33;;
21032;SDS011;10675;47.976;7.824;2023-02-16T01:02:13;10.33;;;5.90;;
21032;SDS011;10675;47.976;7.824;2023-02-16T01:04:39;7.07;;;4.50;;
21032;SDS011;10675;47.976;7.824;2023-02-16T01:07:13;7.90;;;4.70;;
21032;SDS011;10675;47.976;7.824;2023-02-16T01:10:01;5.53;;;3.67;;
21032;SDS011;10675;47.976;7.824;2023-02-16T01:12:59;8.93;;;4.77;;
21032;SDS011;10675;47.976;7.824;2023-02-16T01:15:25;10.03;;;5.03;;
21032;SDS011;10675;47.976;7.824;2023-02-16T01:17:51;9.30;;;4.50;;
21032;SDS011;10675;47.976;7.824;2023-02-16T01:20:17;8.57;;;5.00;;
21032;SDS011;10675;47.976;7.824;2023-02-16T01:22:44;7.53;;;3.83;;
21032;SDS011;10675;47.976;7.824;2023-02-16T01:25:10;14.60;;;5.43;;
21032;SDS011;10675;47.976;7.824;2023-02-16T01:27:38;11.70;;;4.90;;
21032;SDS011;10675;47.976;7.824;2023-02-16T01:30:06;10.83;;;5.80;;
21032;SDS011;10675;47.976;7.824;2023-02-16T01:32:37;10.80;;;4.83;;
21032;SDS011;10675;47.976;7.824;2023-02-16T01:35:02;8.67;;;5.20;;
21032;SDS011;10675;47.976;7.824;2023-02-16T01:37:28;8.53;;;4.80;;
21032;SDS011;10675;47.976;7.824;2023-02-16T01:39:53;10.77;;;4.57;;
21032;SDS011;10675;47.976;7.824;2023-02-16T01:42:33;6.57;;;4.30;;
21032;SDS011;10675;47.976;7.824;2023-02-16T01:45:12;9.67;;;4.80;;
21032;SDS011;10675;47.976;7.824;2023-02-16T01:47:44;8.70;;;4.67;;
21032;SDS011;10675;47.976;7.824;2023-02-16T01:50:19;7.17;;;4.13;;
21032;SDS011;10675;47.976;7.824;2023-02-16T01:52:57;6.50;;;4.23;;
21032;SDS011;10675;47.976;7.824;2023-02-16T01:55:29;9.60;;;4.00;;
21032;SDS011;10675;47.976;7.824;2023-02-16T01:58:06;10.27;;;4.70;;
21032;SDS011;10675;47.976;7.824;2023-02-16T02:03:15;8.43;;;4.37;;
21032;SDS011;10675;47.976;7.824;2023-02-16T02:06:03;6.03;;;3.63;;
21032;SDS011;10675;47.976;7.824;2023-02-16T02:08:41;6.60;;;4.37;;
21032;SDS011;10675;47.976;7.824;2023-02-16T02:11:23;10.63;;;5.17;;
21032;SDS011;10675;47.976;7.824;2023-02-16T02:14:06;7.17;;;4.20;;
21032;SDS011;10675;47.976;7.824;2023-02-16T02:16:36;8.10;;;4.73;;
21032;SDS011;10675;47.976;7.824;2023-02-16T02:19:02;7.10;;;5.27;;
21032;SDS011;10675;47.976;7.824;2023-02-16T02:21:41;8.97;;;5.10;;
21032;SDS011;10675;47.976;7.824;2023-02-16T02:27:37;8.10;;;3.70;;
21032;SDS011;10675;47.976;7.824;2023-02-16T02:35:57;12.83;;;6.30;;
21032;SDS011;10675;47.976;7.824;2023-02-16T02:41:13;7.13;;;3.87;;
21032;SDS011;10675;47.976;7.824;2023-02-16T02:43:55;11.13;;;4.80;;
21032;SDS011;10675;47.976;7.824;2023-02-16T02:46:25;8.53;;;4.50;;
21032;SDS011;10675;47.976;7.824;2023-02-16T02:48:53;5.17;;;3.67;;
21032;SDS011;10675;47.976;7.824;2023-02-16T02:51:19;9.10;;;4.00;;
21032;SDS011;10675;47.976;7.824;2023-02-16T02:53:55;9.17;;;4.43;;
21032;SDS011;10675;47.976;7.824;2023-02-16T02:59:48;8.40;;;4.83;;
21032;SDS011;10675;47.976;7.824;2023-02-16T03:02:56;8.07;;;4.70;;
21032;SDS011;10675;47.976;7.824;2023-02-16T03:05:24;11.93;;;5.47;;
21032;SDS011;10675;47.976;7.824;2023-02-16T03:07:54;9.63;;;5.30;;
21032;SDS011;10675;47.976;7.824;2023-02-16T03:10:30;11.23;;;5.20;;
21032;SDS011;10675;47.976;7.824;2023-02-16T03:13:21;9.43;;;5.40;;
21032;SDS011;10675;47.976;7.824;2023-02-16T03:15:49;11.80;;;4.27;;
21032;SDS011;10675;47.976;7.824;2023-02-16T03:18:20;10.87;;;4.13;;
21032;SDS011;10675;47.976;7.824;2023-02-16T03:21:07;8.77;;;3.50;;
21032;SDS011;10675;47.976;7.824;2023-02-16T03:23:53;6.07;;;3.73;;
21032;SDS011;10675;47.976;7.824;2023-02-16T03:26:39;5.17;;;3.10;;
21032;SDS011;10675;47.976;7.824;2023-02-16T03:29:23;4.60;;;3.20;;
21032;SDS011;10675;47.976;7.824;2023-02-16T03:31:51;5.90;;;3.50;;
21032;SDS011;10675;47.976;7.824;2023-02-16T03:34:20;4.50;;;3.30;;
21032;SDS011;10675;47.976;7.824;2023-02-16T03:36:49;6.43;;;3.87;;
21032;SDS011;10675;47.976;7.824;2023-02-16T03:39:22;4.33;;;2.73;;
21032;SDS011;10675;47.976;7.824;2023-02-16T03:41:48;5.07;;;3.33;;
21032;SDS011;10675;47.976;7.824;2023-02-16T03:44:15;6.67;;;3.37;;
21032;SDS011;10675;47.976;7.824;2023-02-16T03:46:41;4.93;;;3.60;;
21032;SDS011;10675;47.976;7.824;2023-02-16T03:49:07;5.93;;;3.30;;
21032;SDS011;10675;47.976;7.824;2023-02-16T03:51:33;4.70;;;3.13;;
21032;SDS011;10675;47.976;7.824;2023-02-16T03:53:58;5.93;;;3.13;;
21032;SDS011;10675;47.976;7.824;2023-02-16T03:56:24;5.03;;;3.00;;
21032;SDS011;10675;47.976;7.824;2023-02-16T03:58:50;4.80;;;3.07;;
21032;SDS011;10675;47.976;7.824;2023-02-16T04:01:15;5.73;;;3.40;;
21032;SDS011;10675;47.976;7.824;2023-02-16T04:03:41;4.17;;;3.07;;
21032;SDS011;10675;47.976;7.824;2023-02-16T04:06:06;9.23;;;4.10;;
21032;SDS011;10675;47.976;7.824;2023-02-16T04:08:32;5.10;;;3.10;;
21032;SDS011;10675;47.976;7.824;2023-02-16T04:10:57;6.27;;;3.07;;
21032;SDS011;10675;47.976;7.824;2023-02-16T04:13:24;6.10;;;3.40;;
21032;SDS011;10675;47.976;7.824;2023-02-16T04:15:50;5.23;;;3.20;;
21032;SDS011;10675;47.976;7.824;2023-02-16T04:18:16;6.40;;;3.60;;
21032;SDS011;10675;47.976;7.824;2023-02-16T04:20:41;6.63;;;3.23;;
21032;SDS011;10675;47.976;7.824;2023-02-16T04:23:07;5.70;;;4.07;;
21032;SDS011;10675;47.976;7.824;2023-02-16T04:25:33;6.67;;;3.33;;
21032;SDS011;10675;47.976;7.824;2023-02-16T04:27:59;3.77;;;3.07;;
21032;SDS011;10675;47.976;7.824;2023-02-16T04:30:26;4.90;;;3.07;;
21032;SDS011;10675;47.976;7.824;2023-02-16T04:32:53;6.70;;;3.50;;
21032;SDS011;10675;47.976;7.824;2023-02-16T04:35:19;8.30;;;4.40;;
21032;SDS011;10675;47.976;7.824;2023-02-16T04:37:45;12.93;;;5.07;;
21032;SDS011;10675;47.976;7.824;2023-02-16T04:40:12;6.47;;;3.77;;
21032;SDS011;10675;47.976;7.824;2023-02-16T04:42:39;7.70;;;3.87;;
21032;SDS011;10675;47.976;7.824;2023-02-16T04:45:05;6.30;;;4.13;;
21032;SDS011;10675;47.976;7.824;2023-02-16T04:47:32;5.97;;;3.30;;
21032;SDS011;10675;47.976;7.824;2023-02-16T04:49:57;10.57;;;4.33;;
21032;SDS011;10675;47.976;7.824;2023-02-16T04:52:23;9.30;;;3.90;;
21032;SDS011;10675;47.976;7.824;2023-02-16T04:54:48;9.23;;;4.47;;
21032;SDS011;10675;47.976;7.824;2023-02-16T04:57:14;11.57;;;4.67;;
21032;SDS011;10675;47.976;7.824;2023-02-16T04:59:40;11.57;;;4.97;;
21032;SDS011;10675;47.976;7.824;2023-02-16T05:02:06;10.77;;;4.77;;
21032;SDS011;10675;47.976;7.824;2023-02-16T05:04:32;8.33;;;4.50;;
21032;SDS011;10675;47.976;7.824;2023-02-16T05:06:58;16.17;;;5.53;;
21032;SDS011;10675;47.976;7.824;2023-02-16T05:09:24;10.23;;;4.80;;
21032;SDS011;10675;47.976;7.824;2023-02-16T05:11:49;7.40;;;4.30;;
21032;SDS011;10675;47.976;7.824;2023-02-16T05:14:34;9.43;;;3.93;;
21032;SDS011;10675;47.976;7.824;2023-02-16T05:17:19;10.70;;;4.73;;
21032;SDS011;10675;47.976;7.824;2023-02-16T05:19:50;11.03;;;5.63;;
21032;SDS011;10675;47.976;7.824;2023-02-16T05:22:18;11.50;;;6.10;;
21032;SDS011;10675;47.976;7.824;2023-02-16T05:24:44;13.27;;;5.90;;
21032;SDS011;10675;47.976;7.824;2023-02-16T05:27:11;15.13;;;4.93;;
21032;SDS011;10675;47.976;7.824;2023-02-16T05:29:47;8.87;;;4.03;;
21032;SDS011;10675;47.976;7.824;2023-02-16T05:32:13;3.87;;;2.93;;
21032;SDS011;10675;47.976;7.824;2023-02-16T05:34:39;6.67;;;3.00;;
21032;SDS011;10675;47.976;7.824;2023-02-16T05:37:05;5.27;;;3.20;;
21032;SDS011;10675;47.976;7.824;2023-02-16T05:39:30;4.77;;;3.43;;
21032;SDS011;10675;47.976;7.824;2023-02-16T05:41:56;7.33;;;3.40;;
21032;SDS011;10675;47.976;7.824;2023-02-16T05:44:22;7.90;;;4.50;;
21032;SDS011;10675;47.976;7.824;2023-02-16T05:46:47;8.20;;;3.97;;
21032;SDS011;10675;47.976;7.824;2023-02-16T05:49:13;7.73;;;4.37;;
21032;SDS011;10675;47.976;7.824;2023-02-16T05:51:39;15.20;;;5.33;;
21032;SDS011;10675;47.976;7.824;2023-02-16T05:54:06;7.03;;;4.50;;
21032;SDS011;10675;47.976;7.824;2023-02-16T05:56:32;8.60;;;4.80;;
21032;SDS011;10675;47.976;7.824;2023-02-16T05:58:58;12.83;;;5.63;;
21032;SDS011;10675;47.976;7.824;2023-02-16T06:01:24;7.67;;;3.97;;
21032;SDS011;10675;47.976;7.824;2023-02-16T06:03:50;10.53;;;3.80;;
21032;SDS011;10675;47.976;7.824;2023-02-16T06:06:16;8.10;;;3.60;;
21032;SDS011;10675;47.976;7.824;2023-02-16T06:08:42;6.40;;;3.70;;
21032;SDS011;10675;47.976;7.824;2023-02-16T06:11:07;9.33;;;4.37;;
21032;SDS011;10675;47.976;7.824;2023-02-16T06:13:53;12.00;;;5.20;;
21032;SDS011;10675;47.976;7.824;2023-02-16T06:16:22;11.93;;;5.27;;
21032;SDS011;10675;47.976;7.824;2023-02-16T06:18:49;11.47;;;5.07;;
21032;SDS011;10675;47.976;7.824;2023-02-16T06:21:14;11.83;;;4.60;;
21032;SDS011;10675;47.976;7.824;2023-02-16T06:23:40;13.67;;;4.53;;
21032;SDS011;10675;47.976;7.824;2023-02-16T06:26:05;9.70;;;4.83;;
21032;SDS011;10675;47.976;7.824;2023-02-16T06:28:31;10.77;;;4.63;;
21032;SDS011;10675;47.976;7.824;2023-02-16T06:30:56;9.53;;;4.70;;
21032;SDS011;10675;47.976;7.824;2023-02-16T06:33:22;8.33;;;4.23;;
21032;SDS011;10675;47.976;7.824;2023-02-16T06:35:47;7.30;;;4.50;;
21032;SDS011;10675;47.976;7.824;2023-02-16T06:38:13;6.57;;;3.57;;
21032;SDS011;10675;47.976;7.824;2023-02-16T06:40:38;9.93;;;4.87;;
21032;SDS011;10675;47.976;7.824;2023-02-16T06:43:04;10.70;;;4.63;;
21032;SDS011;10675;47.976;7.824;2023-02-16T06:45:29;10.90;;;4.93;;
21032;SDS011;10675;47.976;7.824;2023-02-16T06:47:55;12.87;;;5.63;;
21032;SDS011;10675;47.976;7.824;2023-02-16T06:50:20;13.90;;;4.80;;
21032;SDS011;10675;47.976;7.824;2023-02-16T06:52:46;10.67;;;5.57;;
21032;SDS011;10675;47.976;7.824;2023-02-16T06:55:11;14.93;;;5.77;;
21032;SDS011;10675;47.976;7.824;2023-02-16T06:57:37;10.90;;;5.33;;
21032;SDS011;10675;47.976;7.824;2023-02-16T07:00:03;13.73;;;5.67;;
21032;SDS011;10675;47.976;7.824;2023-02-16T07:02:30;11.67;;;5.37;;
21032;SDS011;10675;47.976;7.824;2023-02-16T07:04:56;11.40;;;4.63;;
21032;SDS011;10675;47.976;7.824;2023-02-16T07:07:21;9.03;;;5.10;;
21032;SDS011;10675;47.976;7.824;2023-02-16T07:09:48;10.63;;;5.30;;
21032;SDS011;10675;47.976;7.824;2023-02-16T07:12:14;10.80;;;5.40;;
21032;SDS011;10675;47.976;7.824;2023-02-16T07:14:39;8.60;;;4.27;;
21032;SDS011;10675;47.976;7.824;2023-02-16T07:17:05;7.73;;;4.40;;
21032;SDS011;10675;47.976;7.824;2023-02-16T07:19:30;7.77;;;4.30;;
21032;SDS011;10675;47.976;7.824;2023-02-16T07:22:01;9.50;;;6.13;;
21032;SDS011;10675;47.976;7.824;2023-02-16T07:24:26;12.47;;;6.57;;
21032;SDS011;10675;47.976;7.824;2023-02-16T07:26:53;11.77;;;5.60;;
21032;SDS011;10675;47.976;7.824;2023-02-16T07:29:19;10.27;;;5.13;;
21032;SDS011;10675;47.976;7.824;2023-02-16T07:31:45;12.23;;;6.33;;
21032;SDS011;10675;47.976;7.824;2023-02-16T07:34:10;11.67;;;5.17;;
21032;SDS011;10675;47.976;7.824;2023-02-16T07:36:36;8.27;;;4.80;;
21032;SDS011;10675;47.976;7.824;2023-02-16T07:39:02;9.10;;;6.13;;
21032;SDS011;10675;47.976;7.824;2023-02-16T07:41:28;9.27;;;5.47;;
21032;SDS011;10675;47.976;7.824;2023-02-16T07:43:53;6.37;;;4.43;;
21032;SDS011;10675;47.976;7.824;2023-02-16T07:46:19;9.13;;;4.70;;
21032;SDS011;10675;47.976;7.824;2023-02-16T07:48:48;10.03;;;4.23;;
21032;SDS011;10675;47.976;7.824;2023-02-16T07:51:25;5.90;;;4.10;;
21032;SDS011;10675;47.976;7.824;2023-02-16T07:53:54;6.93;;;3.67;;
21032;SDS011;10675;47.976;7.824;2023-02-16T07:56:21;8.97;;;4.80;;
21032;SDS011;10675;47.976;7.824;2023-02-16T07:58:52;8.17;;;5.00;;
21032;SDS011;10675;47.976;7.824;2023-02-16T08:01:19;6.90;;;4.10;;
21032;SDS011;10675;47.976;7.824;2023-02-16T08:03:45;4.77;;;3.40;;
21032;SDS011;10675;47.976;7.824;2023-02-16T08:06:10;5.47;;;3.63;;
21032;SDS011;10675;47.976;7.824;2023-02-16T08:08:36;7.40;;;3.93;;
21032;SDS011;10675;47.976;7.824;2023-02-16T08:11:21;6.73;;;3.80;;
21032;SDS011;10675;47.976;7.824;2023-02-16T08:13:48;4.63;;;3.43;;
21032;SDS011;10675;47.976;7.824;2023-02-16T08:16:16;5.83;;;3.10;;
21032;SDS011;10675;47.976;7.824;2023-02-16T08:18:43;4.27;;;2.80;;
21032;SDS011;10675;47.976;7.824;2023-02-16T08:21:10;3.17;;;2.60;;
21032;SDS011;10675;47.976;7.824;2023-02-16T08:23:41;8.63;;;5.37;;
21032;SDS011;10675;47.976;7.824;2023-02-16T08:26:11;8.67;;;5.00;;
21032;SDS011;10675;47.976;7.824;2023-02-16T08:28:38;8.67;;;5.43;;
21032;SDS011;10675;47.976;7.824;2023-02-16T08:31:09;8.30;;;4.50;;
21032;SDS011;10675;47.976;7.824;2023-02-16T08:33:39;8.03;;;3.90;;
21032;SDS011;10675;47.976;7.824;2023-02-16T08:36:06;4.30;;;2.70;;
21032;SDS011;10675;47.976;7.824;2023-02-16T08:38:35;5.50;;;3.37;;
21032;SDS011;10675;47.976;7.824;2023-02-16T08:41:01;4.77;;;3.10;;
21032;SDS011;10675;47.976;7.824;2023-02-16T08:43:26;4.17;;;2.67;;
21032;SDS011;10675;47.976;7.824;2023-02-16T08:45:52;4.50;;;3.27;;
21032;SDS011;10675;47.976;7.824;2023-02-16T08:48:18;5.87;;;3.17;;
21032;SDS011;10675;47.976;7.824;2023-02-16T08:50:44;5.53;;;3.07;;
21032;SDS011;10675;47.976;7.824;2023-02-16T08:53:21;5.63;;;3.13;;
21032;SDS011;10675;47.976;7.824;2023-02-16T08:55:54;3.63;;;2.70;;
21032;SDS011;10675;47.976;7.824;2023-02-16T08:58:21;4.20;;;2.87;;
21032;SDS011;10675;47.976;7.824;2023-02-16T09:00:48;3.87;;;2.70;;
21032;SDS011;10675;47.976;7.824;2023-02-16T09:03:15;2.53;;;2.30;;
21032;SDS011;10675;47.976;7.824;2023-02-16T09:05:42;3.87;;;2.80;;
21032;SDS011;10675;47.976;7.824;2023-02-16T09:08:09;3.30;;;2.50;;
21032;SDS011;10675;47.976;7.824;2023-02-16T09:10:34;6.10;;;2.90;;
21032;SDS011;10675;47.976;7.824;2023-02-16T09:13:00;2.40;;;2.20;;
21032;SDS011;10675;47.976;7.824;2023-02-16T09:15:25;3.77;;;2.50;;
21032;SDS011;10675;47.976;7.824;2023-02-16T09:17:51;3.13;;;2.83;;
21032;SDS011;10675;47.976;7.824;2023-02-16T09:20:17;3.00;;;2.27;;
21032;SDS011;10675;47.976;7.824;2023-02-16T09:22:44;2.73;;;2.53;;
21032;SDS011;10675;47.976;7.824;2023-02-16T09:25:10;2.83;;;2.47;;
21032;SDS011;10675;47.976;7.824;2023-02-16T09:27:36;5.23;;;2.60;;
21032;SDS011;10675;47.976;7.824;2023-02-16T09:30:02;3.37;;;2.27;;
21032;SDS011;10675;47.976;7.824;2023-02-16T09:32:29;3.67;;;2.37;;
21032;SDS011;10675;47.976;7.824;2023-02-16T09:34:55;4.27;;;2.43;;
21032;SDS011;10675;47.976;7.824;2023-02-16T09:37:21;4.43;;;2.63;;
21032;SDS011;10675;47.976;7.824;2023-02-16T09:39:47;4.90;;;3.17;;
21032;SDS011;10675;47.976;7.824;2023-02-16T09:45:15;4.77;;;3.00;;
21032;SDS011;10675;47.976;7.824;2023-02-16T09:47:45;6.90;;;3.53;;
21032;SDS011;10675;47.976;7.824;2023-02-16T09:50:28;4.70;;;2.73;;
21032;SDS011;10675;47.976;7.824;2023-02-16T09:53:00;5.57;;;3.40;;
21032;SDS011;10675;47.976;7.824;2023-02-16T09:55:36;5.03;;;3.20;;
21032;SDS011;10675;47.976;7.824;2023-02-16T09:58:21;4.40;;;2.80;;
21032;SDS011;10675;47.976;7.824;2023-02-16T10:01:09;5.60;;;3.07;;
21032;SDS011;10675;47.976;7.824;2023-02-16T10:03:58;6.00;;;3.47;;
21032;SDS011;10675;47.976;7.824;2023-02-16T10:06:49;6.53;;;3.40;;
21032;SDS011;10675;47.976;7.824;2023-02-16T10:09:16;5.50;;;3.40;;
21032;SDS011;10675;47.976;7.824;2023-02-16T10:14:34;3.40;;;2.90;;
21032;SDS011;10675;47.976;7.824;2023-02-16T10:19:53;5.17;;;3.37;;
21032;SDS011;10675;47.976;7.824;2023-02-16T10:30:42;4.83;;;3.00;;
21032;SDS011;10675;47.976;7.824;2023-02-16T10:33:33;3.80;;;3.03;;
21032;SDS011;10675;47.976;7.824;2023-02-16T10:36:54;6.60;;;3.07;;
21032;SDS011;10675;47.976;7.824;2023-02-16T10:41:57;4.13;;;3.00;;
21032;SDS011;10675;47.976;7.824;2023-02-16T10:44:42;3.83;;;2.97;;
21032;SDS011;10675;47.976;7.824;2023-02-16T10:47:25;5.67;;;3.07;;
21032;SDS011;10675;47.976;7.824;2023-02-16T10:49:55;6.83;;;3.43;;
21032;SDS011;10675;47.976;7.824;2023-02-16T10:52:21;6.57;;;3.17;;
21032;SDS011;10675;47.976;7.824;2023-02-16T10:54:48;4.67;;;3.07;;
21032;SDS011;10675;47.976;7.824;2023-02-16T10:57:30;7.40;;;3.17;;
21032;SDS011;10675;47.976;7.824;2023-02-16T10:59:58;4.47;;;3.20;;
21032;SDS011;10675;47.976;7.824;2023-02-16T11:02:29;7.10;;;3.50;;
21032;SDS011;10675;47.976;7.824;2023-02-16T11:05:02;4.77;;;3.07;;
21032;SDS011;10675;47.976;7.824;2023-02-16T11:07:54;6.07;;;2.67;;
21032;SDS011;10675;47.976;7.824;2023-02-16T11:10:26;4.57;;;3.30;;
21032;SDS011;10675;47.976;7.824;2023-02-16T11:12:58;5.60;;;3.13;;
21032;SDS011;10675;47.976;7.824;2023-02-16T11:15:23;6.53;;;3.63;;
21032;SDS011;10675;47.976;7.824;2023-02-16T11:17:52;4.27;;;3.30;;
21032;SDS011;10675;47.976;7.824;2023-02-16T11:20:25;4.37;;;2.67;;
21032;SDS011;10675;47.976;7.824;2023-02-16T11:22:53;7.97;;;4.03;;
21032;SDS011;10675;47.976;7.824;2023-02-16T11:25:35;6.07;;;3.13;;
21032;SDS011;10675;47.976;7.824;2023-02-16T11:28:01;5.87;;;2.80;;
21032;SDS011;10675;47.976;7.824;2023-02-16T11:30:31;4.57;;;3.10;;
21032;SDS011;10675;47.976;7.824;2023-02-16T11:32:58;4.17;;;2.63;;
21032;SDS011;10675;47.976;7.824;2023-02-16T11:35:25;4.83;;;3.10;;
21032;SDS011;10675;47.976;7.824;2023-02-16T11:37:51;6.97;;;2.83;;
21032;SDS011;10675;47.976;7.824;2023-02-16T11:42:52;3.67;;;2.53;;
21032;SDS011;10675;47.976;7.824;2023-02-16T11:47:59;11.43;;;6.40;;
21032;SDS011;10675;47.976;7.824;2023-02-16T11:50:28;6.40;;;3.10;;
21032;SDS011;10675;47.976;7.824;2023-02-16T11:55:47;4.00;;;2.67;;
21032;SDS011;10675;47.976;7.824;2023-02-16T12:01:26;3.70;;;3.00;;
21032;SDS011;10675;47.976;7.824;2023-02-16T12:03:47;3.50;;;2.33;;
21032;SDS011;10675;47.976;7.824;2023-02-16T12:09:31;6.07;;;3.00;;
21032;SDS011;10675;47.976;7.824;2023-02-16T12:12:13;4.60;;;2.73;;
21032;SDS011;10675;47.976;7.824;2023-02-16T12:14:48;4.00;;;2.60;;
21032;SDS011;10675;47.976;7.824;2023-02-16T12:20:22;4.93;;;2.97;;
21032;SDS011;10675;47.976;7.824;2023-02-16T12:22:50;4.60;;;2.83;;
21032;SDS011;10675;47.976;7.824;2023-02-16T12:31:10;3.93;;;2.73;;
21032;SDS011;10675;47.976;7.824;2023-02-16T12:33:58;4.50;;;2.47;;
21032;SDS011;10675;47.976;7.824;2023-02-16T12:36:53;3.43;;;2.40;;
21032;SDS011;10675;47.976;7.824;2023-02-16T12:39:34;2.77;;;2.10;;
21032;SDS011;10675;47.976;7.824;2023-02-16T12:42:15;3.10;;;2.10;;
21032;SDS011;10675;47.976;7.824;2023-02-16T12:44:48;2.30;;;2.10;;
21032;SDS011;10675;47.976;7.824;2023-02-16T12:50:18;2.60;;;1.80;;
21032;SDS011;10675;47.976;7.824;2023-02-16T12:52:55;3.43;;;2.00;;
21032;SDS011;10675;47.976;7.824;2023-02-16T12:55:35;4.73;;;2.70;;
21032;SDS011;10675;47.976;7.824;2023-02-16T13:05:46;5.10;;;2.23;;
21032;SDS011;10675;47.976;7.824;2023-02-16T13:10:56;8.17;;;3.03;;
21032;SDS011;10675;47.976;7.824;2023-02-16T13:13:34;4.13;;;2.53;;
21032;SDS011;10675;47.976;7.824;2023-02-16T13:16:02;4.13;;;2.50;;
21032;SDS011;10675;47.976;7.824;2023-02-16T13:18:40;3.23;;;2.27;;
21032;SDS011;10675;47.976;7.824;2023-02-16T13:37:20;3.67;;;2.33;;
21032;SDS011;10675;47.976;7.824;2023-02-16T13:45:38;3.53;;;2.60;;
21032;SDS011;10675;47.976;7.824;2023-02-16T13:48:20;3.77;;;2.37;;
21032;SDS011;10675;47.976;7.824;2023-02-16T13:50:46;5.67;;;3.20;;
21032;SDS011;10675;47.976;7.824;2023-02-16T13:53:19;5.07;;;3.00;;
21032;SDS011;10675;47.976;7.824;2023-02-16T13:55:46;8.97;;;3.10;;
21032;SDS011;10675;47.976;7.824;2023-02-16T14:00:43;5.50;;;2.93;;
21032;SDS011;10675;47.976;7.824;2023-02-16T14:05:47;4.63;;;3.00;;
21032;SDS011;10675;47.976;7.824;2023-02-16T14:08:15;5.30;;;2.97;;
21032;SDS011;10675;47.976;7.824;2023-02-16T14:15:52;5.40;;;3.03;;
21032;SDS011;10675;47.976;7.824;2023-02-16T14:18:30;5.10;;;3.07;;
21032;SDS011;10675;47.976;7.824;2023-02-16T14:21:03;6.43;;;3.27;;
21032;SDS011;10675;47.976;7.824;2023-02-16T14:23:30;4.23;;;2.73;;
21032;SDS011;10675;47.976;7.824;2023-02-16T14:26:01;5.90;;;3.30;;
21032;SDS011;10675;47.976;7.824;2023-02-16T14:30:59;3.67;;;2.63;;
21032;SDS011;10675;47.976;7.824;2023-02-16T14:36:13;3.50;;;2.63;;
21032;SDS011;10675;47.976;7.824;2023-02-16T14:38:43;3.53;;;2.63;;
21032;SDS011;10675;47.976;7.824;2023-02-16T14:43:52;5.93;;;3.03;;
21032;SDS011;10675;47.976;7.824;2023-02-16T14:57:06;4.17;;;2.50;;
21032;SDS011;10675;47.976;7.824;2023-02-16T14:59:45;5.80;;;2.70;;
21032;SDS011;10675;47.976;7.824;2023-02-16T15:02:29;3.77;;;2.43;;
21032;SDS011;10675;47.976;7.824;2023-02-16T15:04:57;6.57;;;2.57;;
21032;SDS011;10675;47.976;7.824;2023-02-16T15:07:40;5.57;;;2.73;;
21032;SDS011;10675;47.976;7.824;2023-02-16T15:10:06;5.23;;;2.90;;
21032;SDS011;10675;47.976;7.824;2023-02-16T15:12:38;3.43;;;2.50;;
21032;SDS011;10675;47.976;7.824;2023-02-16T15:15:05;3.20;;;2.40;;
21032;SDS011;10675;47.976;7.824;2023-02-16T15:17:42;4.13;;;2.67;;
21032;SDS011;10675;47.976;7.824;2023-02-16T15:20:23;2.90;;;2.00;;
21032;SDS011;10675;47.976;7.824;2023-02-16T15:22:58;2.13;;;1.93;;
21032;SDS011;10675;47.976;7.824;2023-02-16T15:25:29;3.57;;;2.30;;
21032;SDS011;10675;47.976;7.824;2023-02-16T15:30:48;2.90;;;1.90;;
21032;SDS011;10675;47.976;7.824;2023-02-16T15:35:46;11.77;;;9.23;;
21032;SDS011;10675;47.976;7.824;2023-02-16T15:38:22;7.50;;;3.57;;
21032;SDS011;10675;47.976;7.824;2023-02-16T15:40:53;15.27;;;9.53;;
21032;SDS011;10675;47.976;7.824;2023-02-16T15:46:04;11.50;;;9.20;;
21032;SDS011;10675;47.976;7.824;2023-02-16T15:48:37;55.60;;;38.73;;
21032;SDS011;10675;47.976;7.824;2023-02-16T15:51:14;4.83;;;3.90;;
21032;SDS011;10675;47.976;7.824;2023-02-16T15:53:45;10.97;;;6.57;;
21032;SDS011;10675;47.976;7.824;2023-02-16T15:56:25;12.90;;;9.70;;
21032;SDS011;10675;47.976;7.824;2023-02-16T15:59:27;12.10;;;8.80;;
21032;SDS011;10675;47.976;7.824;2023-02-16T16:02:17;12.70;;;10.60;;
21032;SDS011;10675;47.976;7.824;2023-02-16T16:04:52;9.70;;;7.00;;
21032;SDS011;10675;47.976;7.824;2023-02-16T16:07:21;9.57;;;6.73;;
21032;SDS011;10675;47.976;7.824;2023-02-16T16:09:54;28.80;;;17.60;;
21032;SDS011;10675;47.976;7.824;2023-02-16T16:12:21;3.37;;;2.50;;
21032;SDS011;10675;47.976;7.824;2023-02-16T16:14:57;4.83;;;4.23;;
21032;SDS011;10675;47.976;7.824;2023-02-16T16:17:25;18.33;;;9.47;;
21032;SDS011;10675;47.976;7.824;2023-02-16T16:19:54;9.57;;;5.93;;
21032;SDS011;10675;47.976;7.824;2023-02-16T16:23:22;22.40;;;18.37;;
21032;SDS011;10675;47.976;7.824;2023-02-16T16:25:45;7.97;;;6.50;;
21032;SDS011;10675;47.976;7.824;2023-02-16T16:28:30;12.03;;;9.07;;
21032;SDS011;10675;47.976;7.824;2023-02-16T16:34:05;7.13;;;4.83;;
21032;SDS011;10675;47.976;7.824;2023-02-16T16:41:35;10.53;;;8.60;;
21032;SDS011;10675;47.976;7.824;2023-02-16T16:44:01;66.93;;;33.80;;
21032;SDS011;10675;47.976;7.824;2023-02-16T16:46:28;40.07;;;21.53;;
21032;SDS011;10675;47.976;7.824;2023-02-16T16:48:58;36.40;;;19.27;;
21032;SDS011;10675;47.976;7.824;2023-02-16T16:54:11;59.03;;;21.80;;
21032;SDS011;10675;47.976;7.824;2023-02-16T16:56:55;99.67;;;35.63;;
21032;SDS011;10675;47.976;7.824;2023-02-16T16:59:21;116.37;;;42.47;;
21032;SDS011;10675;47.976;7.824;2023-02-16T17:01:47;51.90;;;19.83;;
21032;SDS011;10675;47.976;7.824;2023-02-16T17:04:14;30.57;;;13.37;;
21032;SDS011;10675;47.976;7.824;2023-02-16T17:06:40;13.03;;;5.93;;
21032;SDS011;10675;47.976;7.824;2023-02-16T17:09:06;5.10;;;2.67;;
21032;SDS011;10675;47.976;7.824;2023-02-16T17:11:33;6.33;;;2.93;;
21032;SDS011;10675;47.976;7.824;2023-02-16T17:14:07;8.37;;;3.33;;
21032;SDS011;10675;47.976;7.824;2023-02-16T17:16:44;5.80;;;3.00;;
21032;SDS011;10675;47.976;7.824;2023-02-16T17:19:15;5.97;;;3.03;;
21032;SDS011;10675;47.976;7.824;2023-02-16T17:21:42;3.27;;;2.30;;
21032;SDS011;10675;47.976;7.824;2023-02-16T17:24:09;11.40;;;4.80;;
21032;SDS011;10675;47.976;7.824;2023-02-16T17:26:35;14.77;;;5.70;;
21032;SDS011;10675;47.976;7.824;2023-02-16T17:29:01;18.37;;;6.27;;
21032;SDS011;10675;47.976;7.824;2023-02-16T17:31:27;17.80;;;6.87;;
21032;SDS011;10675;47.976;7.824;2023-02-16T17:33:53;12.43;;;5.23;;